Observations for MILDENHALL RAF, United Kingdom (EGUN)

EGUN 241456Z AUTO 08013G22KT 9999 CLR 07/M04 A3022 RMK AO2 SLP237 T00651043 55003 $ 
EGUN 241456Z AUTO 08013G22KT 9999 CLR 07/M04 A3022 RMK AO2 SLP237 T00651043 55003 .
EGUN 241356Z AUTO 09015G25KT 9999 CLR 07/M05 A3021 RMK AO2 SLP234 T00671050 $   
EGUN 241356Z AUTO 09015G25KT 9999 CLR 07/M05 A3021 RMK AO2 SLP234 T00671050 .
EGUN 241256Z AUTO 10015G22KT 9999 CLR 07/M05 A3022 RMK AO2 SLP237 T00671053 $   
EGUN 241256Z AUTO 10015G22KT 9999 CLR 07/M05 A3022 RMK AO2 SLP237 T00671053 .
EGUN 241156Z AUTO 11014G23KT 9999 CLR 06/M05 A3023 RMK AO2 SLP241 T00601048 10060 21031 52005 $ 
EGUN 241156Z AUTO 11014G23KT 9999 CLR 06/M05 A3023 RMK AO2 SLP241 T00601048 10060 21031 52005 .
EGUN 241056Z AUTO 10013G22KT 9999 CLR 04/M04 A3022 RMK AO2 SLP237 T00441036 $   
EGUN 241056Z AUTO 10013G22KT 9999 CLR 04/M04 A3022 RMK AO2 SLP237 T00441036 .
EGUN 240956Z AUTO 10012G20KT 9999 CLR 03/M01 A3022 RMK AO2 SLP237 T00281007 $   
EGUN 240956Z AUTO 10012G20KT 9999 CLR 03/M01 A3022 RMK AO2 SLP237 T00281007 .
EGUN 240856Z AUTO 08009KT 9999 CLR 01/01 A3021 RMK AO2 SLP234 T00060005 52017 $ 
EGUN 240856Z AUTO 08009KT 9999 CLR 01/01 A3021 RMK AO2 SLP234 T00060005 52017 .
EGUN 240756Z AUTO 05006KT 9999 CLR M02/M02 A3020 RMK AO2 SLP231 T10181018 $ 
EGUN 240756Z AUTO 05006KT 9999 CLR M02/M02 A3020 RMK AO2 SLP231 T10181018 .
EGUN 240656Z AUTO 04005KT 9999 CLR M03/M03 A3018 RMK AO2 SLP224 T10311031 $ 
EGUN 240656Z AUTO 04005KT 9999 CLR M03/M03 A3018 RMK AO2 SLP224 T10311031 .
EGUN 240556Z AUTO 04005KT 9999 CLR M02/M02 A3016 RMK AO2 SLP217 T10241024 11006 21025 53001 $   
EGUN 240556Z AUTO 04005KT 9999 CLR M02/M02 A3016 RMK AO2 SLP217 T10241024 1100621025 53001 .
EGUN 240456Z AUTO 04006KT 9999 CLR M02/M02 A3016 RMK AO2 SLP217 T10241024 $ 
EGUN 240456Z AUTO 04006KT 9999 CLR M02/M02 A3016 RMK AO2 SLP217 T10241024 .
EGUN 240356Z AUTO 05005KT 9999 CLR M02/M02 A3016 RMK AO2 SLP217 T10211021 $ 
EGUN 240356Z AUTO 05005KT 9999 CLR M02/M02 A3016 RMK AO2 SLP217 T10211021 .
EGUN 240256Z AUTO 05005KT 9999 CLR M02/M02 A3016 RMK AO2 SLP217 T10171017 52002 $   
EGUN 240256Z AUTO 05005KT 9999 CLR M02/M02 A3016 RMK AO2 SLP217 T10171017 52002.
EGUN 240156Z AUTO 06006KT 9999 BKN029 M01/M01 A3016 RMK AO2 SLP217 T10111011 $  
EGUN 240201Z AUTO 06006KT 9999 SCT029 M01/M01 A3016 RMK AO2 SLP217 $
EGUN 240156Z AUTO 06006KT 9999 BKN029 M01/M01 A3016 RMK AO2 SLP217 T10111011 .
EGUN 240056Z AUTO 05007KT 9999 CLR M01/M01 A3015 RMK AO2 SLP214 T10111011 .
EGUN 240146Z AUTO 06006KT 9999 BKN029 M01/M01 A3016 RMK AO2 SLP217 $
EGUN 240056Z AUTO 05007KT 9999 CLR M01/M01 A3015 RMK AO2 SLP214 T10111011 $ 
EGUN 240006Z AUTO 05006KT 9999 SCT030 M01/M01 A3015 RMK AO2 SLP214 $
EGUN 232356Z AUTO 06006KT 9999 BKN030 M01/M01 A3015 RMK AO2 SLP214 T10061006 10012 21006 400461028 53001 $  
EGUN 232356Z AUTO 06006KT 9999 BKN030 M01/M01 A3015 RMK AO2 SLP214 T10061006 10012 21006 400461028 53001 .
EGUN 232336Z AUTO 06007KT 9999 SCT030 00/00 A3015 RMK AO2 SLP214 $
EGUN 232256Z AUTO 05006KT 9999 OVC029 00/00 A3015 RMK AO2 CIG 028 RWY29 SLP214 T00020002 .
EGUN 232346Z AUTO 06006KT 9999 BKN030 00/00 A3015 RMK AO2 SLP214 $
EGUN 232256Z AUTO 05006KT 9999 OVC029 00/00 A3015 RMK AO2 CIG 028 RWY29 SLP214 T00020002 $  
EGUN 232156Z AUTO 08006KT 9999 SCT028 00/00 A3014 RMK AO2 SLP210 T00020002 $
EGUN 232201Z AUTO 07006KT 9999 BKN028 00/00 A3014 RMK AO2 BKN V SCT SLP210 $
EGUN 232156Z AUTO 08006KT 9999 SCT028 00/00 A3014 RMK AO2 SLP210 T00020002 .
EGUN 232056Z AUTO 07006KT 9999 OVC028 01/01 A3015 RMK AO2 CIG 027 RWY29 SLP214 T00090009 55000 $
EGUN 232056Z AUTO 07006KT 9999 OVC028 01/01 A3015 RMK AO2 CIG 027 RWY29 SLP214 T00090009 55000 .
EGUN 231956Z AUTO 08008KT 9999 OVC027 01/01 A3015 RMK AO2 CIG 026 RWY29 SLP214 T00090008 $  
EGUN 231956Z AUTO 08008KT 9999 OVC027 01/01 A3015 RMK AO2 CIG 026 RWY29 SLP214 T00090008 .
EGUN 231856Z AUTO 09011KT 9999 BKN026 01/00 A3015 RMK AO2 SLP214 T00100000 $
EGUN 231856Z AUTO 09011KT 9999 BKN026 01/00 A3015 RMK AO2 SLP214 T00100000 .
EGUN 231826Z AUTO 08010KT 9999 SCT028 01/M01 A3015 RMK AO2 SLP214 $
EGUN 231816Z AUTO 08009KT 9999 BKN029 01/M01 A3015 RMK AO2 BKN V SCT CIG 028 RWY29 SLP214 $
EGUN 231756Z AUTO 09007KT 9999 SCT029 01/M01 A3015 RMK AO2 SLP214 T00081010 10046 20008 56004 $ 
EGUN 231756Z AUTO 09007KT 9999 SCT029 01/M01 A3015 RMK AO2 SLP214 T00081010 10046 20008 56004 .
EGUN 231726Z AUTO 08011KT 9999 BKN029 01/M01 A3015 RMK AO2 SLP214 $
EGUN 231731Z AUTO 08010KT 9999 SCT029 01/M01 A3015 RMK AO2 SLP214 $
EGUN 231656Z AUTO 09009KT 9999 BKN030 02/M02 A3015 RMK AO2 SLP214 T00171016 $   
EGUN 231701Z AUTO 08008KT 9999 SCT030 01/M01 A3015 RMK AO2 SLP214 $
EGUN 231656Z AUTO 09009KT 9999 BKN030 02/M02 A3015 RMK AO2 SLP214 T00171016 .
EGUN 231556Z AUTO 08011KT 9999 OVC030 03/M02 A3015 RMK AO2 SLP214 T00281016 $   
EGUN 231556Z AUTO 08011KT 9999 OVC030 03/M02 A3015 RMK AO2 SLP214 T00281016 .
EGUN 231456Z AUTO 07012KT 9999 OVC032 03/M01 A3016 RMK AO2 SLP217 T00301014 56015 $ 
EGUN 231456Z AUTO 07012KT 9999 OVC032 03/M01 A3016 RMK AO2 SLP217 T00301014 56015 .